Time;durP1;ratioP1;P1;durP2;ratioP2;P2;SDS_P1;SDS_P2;PMS_P1;PMS_P2;Temp;Humidity;BMP_temperature;BMP_pressure;BME280_temperature;BME280_humidity;BME280_pressure;Samples;Min_cycle;Max_cycle;Signal;HPM_P1;HPM_P2
2023/08/05 00:00:22;;;;;;;9.93;2.90;;;;;;;20.45;70.84;99946.47;4239614;28;21700;-48
2023/08/05 00:02:48;;;;;;;7.57;2.97;;;;;;;20.40;71.08;99944.38;4230658;28;20235;-46
2023/08/05 00:05:15;;;;;;;6.67;3.30;;;;;;;20.41;71.18;99940.56;4231523;28;23366;-48
2023/08/05 00:07:41;;;;;;;10.63;3.00;;;;;;;20.29;72.34;99940.44;4236139;28;20231;-45
2023/08/05 00:10:08;;;;;;;8.50;3.17;;;;;;;20.07;73.19;99927.09;4234517;28;20237;-48
2023/08/05 00:12:35;;;;;;;11.53;3.27;;;;;;;20.00;73.30;99919.94;4227601;28;20593;-47
2023/08/05 00:15:02;;;;;;;9.47;3.00;;;;;;;20.00;73.10;99911.72;4228974;28;20658;-46
2023/08/05 00:17:28;;;;;;;10.70;3.20;;;;;;;20.12;72.57;99901.69;4230042;28;20238;-45
2023/08/05 00:19:55;;;;;;;8.67;3.30;;;;;;;20.19;72.52;99901.63;4226380;28;20230;-45
2023/08/05 00:22:21;;;;;;;5.10;2.83;;;;;;;20.18;72.17;99899.94;4232123;28;21627;-48
2023/08/05 00:24:48;;;;;;;7.33;3.20;;;;;;;20.01;72.54;99888.66;4233046;28;20304;-45
2023/08/05 00:27:15;;;;;;;8.03;2.60;;;;;;;20.01;72.57;99896.91;4221609;28;20246;-48
2023/08/05 00:29:41;;;;;;;8.60;3.23;;;;;;;19.94;73.11;99892.31;4235353;28;20989;-47
2023/08/05 00:32:08;;;;;;;13.80;3.53;;;;;;;19.97;72.67;99892.94;4226619;28;20234;-45
2023/08/05 00:34:35;;;;;;;7.37;2.80;;;;;;;19.94;72.80;99899.69;4234794;28;20548;-47
2023/08/05 00:37:02;;;;;;;7.13;2.57;;;;;;;19.94;72.46;99894.19;4236152;28;20250;-45
2023/08/05 00:39:28;;;;;;;9.03;3.43;;;;;;;19.83;72.79;99886.66;4230439;28;20231;-45
2023/08/05 00:41:55;;;;;;;8.23;3.33;;;;;;;19.78;72.49;99879.09;4239502;28;20231;-47
2023/08/05 00:44:23;;;;;;;10.53;3.27;;;;;;;19.77;72.51;99885.63;4229398;28;20230;-45
2023/08/05 00:46:50;;;;;;;7.87;3.03;;;;;;;19.76;72.69;99882.06;4231155;28;20231;-46
2023/08/05 00:49:17;;;;;;;11.47;3.27;;;;;;;19.75;73.19;99882.28;4224903;28;20305;-48
2023/08/05 00:51:44;;;;;;;6.17;3.20;;;;;;;19.73;72.95;99885.25;4229545;28;20224;-44
2023/08/05 00:54:11;;;;;;;8.27;3.20;;;;;;;19.75;73.07;99885.88;4229803;28;22451;-48
2023/08/05 00:56:38;;;;;;;9.73;3.30;;;;;;;19.67;73.51;99882.56;4223382;28;21853;-43
2023/08/05 00:59:04;;;;;;;8.93;2.80;;;;;;;19.68;73.34;99881.47;4231537;28;20460;-46
2023/08/05 01:01:31;;;;;;;8.13;3.33;;;;;;;19.64;73.61;99872.81;4218648;28;21959;-46
2023/08/05 01:03:58;;;;;;;9.93;2.67;;;;;;;19.63;74.01;99877.50;4230202;28;20235;-45
2023/08/05 01:06:25;;;;;;;7.50;3.30;;;;;;;19.57;74.23;99881.13;4216825;28;20677;-44
2023/08/05 01:08:53;;;;;;;5.57;2.80;;;;;;;19.44;75.31;99892.19;4227456;28;20235;-45
2023/08/05 01:11:19;;;;;;;8.97;3.33;;;;;;;19.46;74.87;99879.91;4227874;28;23011;-47
2023/08/05 01:13:46;;;;;;;8.13;3.37;;;;;;;19.50;74.67;99883.06;4231544;28;21194;-44
2023/08/05 01:16:12;;;;;;;9.47;3.20;;;;;;;19.47;75.25;99883.50;4224995;28;20337;-46
2023/08/05 01:18:39;;;;;;;8.60;3.63;;;;;;;19.32;75.64;99889.28;4232526;28;22356;-48
2023/08/05 01:21:11;;;;;;;8.87;3.30;;;;;;;19.36;75.54;99884.22;4223774;28;20235;-48
2023/08/05 01:23:51;;;;;;;7.03;3.47;;;;;;;19.37;75.51;99866.69;4229398;28;20282;-47
2023/08/05 01:26:17;;;;;;;10.07;3.67;;;;;;;19.28;75.78;99866.06;4214710;28;20230;-44
2023/08/05 01:28:45;;;;;;;11.67;3.50;;;;;;;19.28;75.70;99860.59;4228306;28;20231;-46
2023/08/05 01:31:14;;;;;;;6.00;3.20;;;;;;;19.31;75.62;99865.66;4222142;28;20231;-46
2023/08/05 01:33:42;;;;;;;9.00;3.20;;;;;;;19.37;75.23;99864.75;4224361;28;20312;-46
2023/08/05 01:36:08;;;;;;;6.63;3.43;;;;;;;19.35;75.36;99863.31;4247899;28;20231;-46
2023/08/05 01:38:35;;;;;;;7.40;3.43;;;;;;;19.30;75.67;99862.03;4235032;28;21624;-45
2023/08/05 01:41:02;;;;;;;8.43;3.27;;;;;;;19.23;76.15;99858.50;4229500;28;20242;-44
2023/08/05 01:43:28;;;;;;;8.33;3.63;;;;;;;19.17;76.74;99864.88;4235853;28;20229;-45
2023/08/05 01:45:55;;;;;;;8.70;4.17;;;;;;;19.17;76.68;99886.81;4242630;28;20494;-45
2023/08/05 01:48:21;;;;;;;9.07;4.07;;;;;;;19.13;77.44;99882.84;4231028;28;21763;-48
2023/08/05 01:50:48;;;;;;;15.23;3.63;;;;;;;19.12;77.89;99884.72;4243813;28;20232;-47
2023/08/05 01:53:14;;;;;;;10.20;4.10;;;;;;;19.18;77.68;99879.44;4231364;28;20297;-45
2023/08/05 01:55:41;;;;;;;8.60;4.37;;;;;;;19.18;77.75;99885.75;4230479;28;20269;-69
2023/08/05 01:58:07;;;;;;;10.23;3.50;;;;;;;19.08;78.05;99888.09;4235644;28;20231;-71
2023/08/05 02:00:35;;;;;;;10.43;3.80;;;;;;;19.16;78.03;99896.09;4228808;28;20239;-73
2023/08/05 02:03:02;;;;;;;12.13;3.70;;;;;;;19.14;78.01;99885.34;4235291;28;21204;-71
2023/08/05 02:05:28;;;;;;;13.10;4.10;;;;;;;19.09;78.23;99876.94;4226457;28;20228;-69
2023/08/05 02:07:55;;;;;;;12.30;4.17;;;;;;;19.03;79.00;99871.47;4229752;28;20324;-69
2023/08/05 02:10:22;;;;;;;9.57;3.87;;;;;;;18.98;79.32;99869.38;4230241;28;20371;-70
2023/08/05 02:12:48;;;;;;;11.07;4.03;;;;;;;18.81;79.45;99860.75;4236167;28;20357;-68
2023/08/05 02:15:15;;;;;;;9.40;3.70;;;;;;;18.67;80.06;99874.50;4228405;28;21170;-70
2023/08/05 02:17:41;;;;;;;10.93;4.07;;;;;;;18.64;79.92;99869.44;4227374;28;20308;-69
2023/08/05 02:20:08;;;;;;;10.87;4.43;;;;;;;18.65;79.79;99873.88;4227534;28;21320;-69
2023/08/05 02:22:35;;;;;;;11.27;4.63;;;;;;;18.66;79.77;99863.75;4231941;28;20425;-71
2023/08/05 02:25:02;;;;;;;9.37;3.77;;;;;;;18.54;80.11;99852.63;4238205;28;21136;-69
2023/08/05 02:27:28;;;;;;;13.63;4.13;;;;;;;18.41;80.44;99858.09;4230121;28;20691;-68
2023/08/05 02:29:55;;;;;;;8.43;3.90;;;;;;;18.39;80.38;99868.47;4234681;28;20310;-70
2023/08/05 02:32:21;;;;;;;10.63;3.87;;;;;;;18.42;79.32;99855.19;4233275;28;24074;-69
2023/08/05 02:34:48;;;;;;;9.90;4.07;;;;;;;18.53;78.45;99861.91;4241606;28;20332;-70
2023/08/05 02:37:14;;;;;;;8.03;4.10;;;;;;;18.59;77.69;99869.25;4232046;28;20241;-70
2023/08/05 02:39:41;;;;;;;10.03;4.00;;;;;;;18.59;77.61;99876.63;4242735;28;20310;-68
2023/08/05 02:42:08;;;;;;;9.93;3.50;;;;;;;18.50;77.81;99867.78;4237749;28;20321;-69
2023/08/05 02:44:35;;;;;;;11.53;3.87;;;;;;;18.48;77.56;99872.63;4227309;28;20232;-71
2023/08/05 02:47:01;;;;;;;10.73;4.03;;;;;;;18.42;77.73;99877.09;4234745;28;20294;-70
2023/08/05 02:49:29;;;;;;;8.67;3.70;;;;;;;18.42;77.42;99876.22;4225905;28;20250;-71
2023/08/05 02:51:55;;;;;;;9.10;3.47;;;;;;;18.43;77.12;99881.50;4232694;28;20289;-69
2023/08/05 02:54:22;;;;;;;12.10;3.87;;;;;;;18.46;76.90;99894.78;4233155;28;20275;-70
2023/08/05 02:56:49;;;;;;;13.07;3.77;;;;;;;18.51;76.30;99889.50;4236460;28;20294;-69
2023/08/05 02:59:16;;;;;;;11.47;4.40;;;;;;;18.57;75.90;99890.56;4219131;28;23532;-71
2023/08/05 03:01:42;;;;;;;9.33;3.60;;;;;;;18.48;76.29;99889.06;4223195;28;20235;-70
2023/08/05 03:04:09;;;;;;;12.57;3.97;;;;;;;18.56;76.05;99888.84;4233922;28;20235;-69
2023/08/05 03:06:35;;;;;;;10.77;3.90;;;;;;;18.50;75.96;99892.47;4231632;28;20235;-70
2023/08/05 03:09:02;;;;;;;7.90;3.70;;;;;;;18.59;75.77;99896.66;4237291;28;22823;-68
2023/08/05 03:11:30;;;;;;;13.43;3.77;;;;;;;18.66;75.36;99900.25;4237664;28;20227;-71
2023/08/05 03:13:57;;;;;;;11.53;3.70;;;;;;;18.60;75.17;99906.59;4238496;28;20271;-69
2023/08/05 03:16:24;;;;;;;12.47;3.57;;;;;;;18.66;74.98;99907.59;4237068;28;20239;-71
2023/08/05 03:18:50;;;;;;;13.17;3.70;;;;;;;18.69;74.51;99908.00;4247768;28;20258;-72
2023/08/05 03:21:17;;;;;;;8.43;3.90;;;;;;;18.70;74.40;99903.41;4244201;28;21143;-70
2023/08/05 03:23:44;;;;;;;8.70;3.13;;;;;;;18.77;74.01;99895.16;4245072;28;20231;-71
2023/08/05 03:26:10;;;;;;;8.87;3.77;;;;;;;18.84;73.13;99885.03;4245789;28;20243;-69
2023/08/05 03:28:37;;;;;;;8.73;3.30;;;;;;;18.79;73.06;99885.66;4235992;28;20297;-69
2023/08/05 03:31:04;;;;;;;10.10;3.77;;;;;;;18.89;72.52;99881.59;4231875;28;20240;-72
2023/08/05 03:33:30;;;;;;;6.77;3.27;;;;;;;18.99;71.29;99869.19;4245331;28;20231;-68
2023/08/05 03:35:57;;;;;;;10.63;2.93;;;;;;;19.06;70.99;99868.31;4240203;28;20239;-70
2023/08/05 03:38:23;;;;;;;9.17;3.20;;;;;;;19.13;70.70;99871.84;4238853;28;20457;-71
2023/08/05 03:40:50;;;;;;;10.47;3.37;;;;;;;19.15;70.14;99859.59;4239010;28;24999;-70
2023/08/05 03:43:16;;;;;;;8.30;2.70;;;;;;;19.24;69.58;99868.41;4225949;28;21560;-70
2023/08/05 03:45:51;;;;;;;8.43;3.27;;;;;;;19.29;69.55;99871.38;4246132;28;20258;-72
2023/08/05 03:48:18;;;;;;;8.70;2.80;;;;;;;19.31;69.25;99865.66;4232503;28;20473;-70
2023/08/05 03:50:44;;;;;;;8.17;2.80;;;;;;;19.39;68.97;99867.28;4234609;28;22378;-72
2023/08/05 03:53:11;;;;;;;7.37;2.60;;;;;;;19.40;68.67;99872.56;4235313;28;20857;-70
2023/08/05 03:55:37;;;;;;;9.63;2.87;;;;;;;19.43;68.84;99857.56;4230195;28;20457;-69
2023/08/05 03:58:04;;;;;;;5.53;2.27;;;;;;;19.53;67.99;99854.34;4232600;28;20684;-69
2023/08/05 04:00:31;;;;;;;5.70;2.47;;;;;;;19.43;68.20;99849.31;4220453;28;21286;-68
2023/08/05 04:02:57;;;;;;;5.73;2.70;;;;;;;19.48;67.58;99861.34;4226365;28;20235;-72
2023/08/05 04:05:24;;;;;;;7.00;2.70;;;;;;;19.42;68.22;99859.44;4237776;28;26228;-70
2023/08/05 04:07:53;;;;;;;6.97;2.77;;;;;;;19.52;67.70;99859.00;4219105;28;20453;-71
2023/08/05 04:10:22;;;;;;;7.30;2.47;;;;;;;19.47;68.05;99851.41;4231689;28;20239;-69
2023/08/05 04:12:48;;;;;;;7.63;2.73;;;;;;;19.42;68.00;99861.38;4245521;28;20231;-74
2023/08/05 04:15:17;;;;;;;6.07;2.43;;;;;;;19.42;68.08;99864.94;4235484;28;20293;-71
2023/08/05 04:17:44;;;;;;;7.43;2.80;;;;;;;19.47;67.68;99864.28;4241209;28;20599;-71
2023/08/05 04:20:12;;;;;;;11.00;3.10;;;;;;;19.49;67.99;99862.16;4229789;28;20224;-71
2023/08/05 04:22:39;;;;;;;6.23;2.60;;;;;;;19.48;68.09;99869.56;4221804;28;20714;-67
2023/08/05 04:25:06;;;;;;;5.70;2.80;;;;;;;19.57;67.98;99858.31;4229234;28;20457;-69
2023/08/05 04:27:32;;;;;;;7.17;2.80;;;;;;;19.59;67.49;99848.81;4224793;28;20228;-70
2023/08/05 04:30:02;;;;;;;7.83;2.60;;;;;;;19.62;67.77;99856.59;4234928;28;25733;-69
2023/08/05 04:32:28;;;;;;;10.80;2.77;;;;;;;19.59;68.02;99837.81;4233735;28;20691;-70
2023/08/05 04:34:55;;;;;;;8.10;2.70;;;;;;;19.62;67.70;99844.78;4228124;28;20331;-70
2023/08/05 04:37:22;;;;;;;7.40;3.07;;;;;;;19.59;67.92;99850.69;4228043;28;20231;-70
2023/08/05 04:39:49;;;;;;;12.40;3.20;;;;;;;19.58;68.28;99849.00;4241387;28;20326;-70
2023/08/05 04:42:17;;;;;;;7.60;3.10;;;;;;;19.57;68.21;99852.81;4240355;28;20499;-73
2023/08/05 04:44:45;;;;;;;7.63;3.00;;;;;;;19.53;68.42;99855.16;4231163;28;23015;-69
2023/08/05 04:47:12;;;;;;;8.33;3.30;;;;;;;19.43;69.10;99846.59;4223910;28;20595;-68
2023/08/05 04:49:41;;;;;;;11.73;2.83;;;;;;;19.46;68.96;99851.63;4237919;28;20235;-69
2023/08/05 04:52:08;;;;;;;16.23;3.10;;;;;;;19.42;69.33;99853.97;4231439;28;20239;-72
2023/08/05 04:54:38;;;;;;;10.57;3.17;;;;;;;19.30;69.61;99850.25;4236392;28;21088;-71
2023/08/05 04:57:06;;;;;;;6.63;3.10;;;;;;;19.31;69.85;99838.22;4242158;28;25551;-70
2023/08/05 04:59:33;;;;;;;18.77;3.47;;;;;;;19.34;69.88;99840.50;4246906;28;21756;-70
2023/08/05 05:02:00;;;;;;;9.90;3.10;;;;;;;19.30;69.44;99837.34;4215477;28;25007;-70
2023/08/05 05:04:27;;;;;;;14.87;3.10;;;;;;;19.23;70.18;99827.47;4241556;28;20316;-70
2023/08/05 05:06:53;;;;;;;11.87;2.90;;;;;;;19.25;70.32;99831.69;4236061;28;22234;-68
2023/08/05 05:09:20;;;;;;;8.10;3.00;;;;;;;19.42;69.69;99842.16;4235664;28;20231;-69
2023/08/05 05:11:47;;;;;;;6.40;2.63;;;;;;;19.47;69.78;99847.81;4253458;28;20242;-69
2023/08/05 05:14:13;;;;;;;8.47;3.17;;;;;;;19.48;69.83;99838.53;4235303;28;22821;-73
2023/08/05 05:16:40;;;;;;;9.53;3.10;;;;;;;19.52;70.05;99838.91;4238670;28;20239;-72
2023/08/05 05:19:07;;;;;;;9.60;3.20;;;;;;;19.59;69.31;99845.19;4226671;28;20306;-71
2023/08/05 05:21:33;;;;;;;11.07;3.23;;;;;;;19.57;69.00;99845.44;4237481;28;20231;-69
2023/08/05 05:24:01;;;;;;;13.13;3.57;;;;;;;19.54;69.33;99848.59;4231321;28;20242;-70
2023/08/05 05:26:27;;;;;;;9.27;3.33;;;;;;;19.60;69.26;99858.69;4228610;28;20654;-68
2023/08/05 05:28:54;;;;;;;9.83;3.00;;;;;;;19.74;68.44;99853.97;4251321;28;21802;-70
2023/08/05 05:31:20;;;;;;;10.10;3.07;;;;;;;19.78;68.60;99859.84;4230362;28;21429;-69
2023/08/05 05:33:51;;;;;;;11.57;2.97;;;;;;;19.77;68.72;99853.53;4230807;28;21525;-70
2023/08/05 05:36:17;;;;;;;6.50;3.07;;;;;;;19.80;68.97;99853.06;4225660;28;21018;-71
2023/08/05 05:38:44;;;;;;;6.40;2.63;;;;;;;20.03;68.52;99851.66;4240559;28;22928;-72
2023/08/05 05:41:11;;;;;;;7.93;3.07;;;;;;;20.27;67.77;99839.00;4229620;28;25547;-69
2023/08/05 05:43:38;;;;;;;6.17;3.03;;;;;;;20.42;67.02;99846.88;4230067;28;20342;-69
2023/08/05 05:46:05;;;;;;;11.10;3.43;;;;;;;20.48;66.46;99833.25;4232198;28;21107;-70
2023/08/05 05:48:32;;;;;;;6.20;3.20;;;;;;;20.76;65.61;99829.19;4230642;28;21779;-70
2023/08/05 05:50:58;;;;;;;12.30;3.00;;;;;;;20.80;65.66;99827.66;4227675;28;20295;-70
2023/08/05 05:53:25;;;;;;;7.13;3.00;;;;;;;20.99;65.10;99821.09;4235066;28;20337;-70
2023/08/05 05:55:55;;;;;;;12.40;2.97;;;;;;;20.95;64.91;99819.84;4225806;28;20668;-70
2023/08/05 05:58:21;;;;;;;5.87;2.93;;;;;;;20.88;65.59;99817.16;4238125;28;22549;-74
2023/08/05 06:00:53;;;;;;;8.33;2.67;;;;;;;21.13;64.04;99813.47;4234326;28;20236;-73
2023/08/05 06:03:20;;;;;;;10.37;3.00;;;;;;;21.12;64.35;99816.47;4225944;28;21725;-68
2023/08/05 06:05:50;;;;;;;11.57;3.10;;;;;;;21.16;63.95;99826.78;4232201;28;20510;-69
2023/08/05 06:08:17;;;;;;;7.33;2.70;;;;;;;20.91;64.84;99826.91;4238894;28;20249;-71
2023/08/05 06:10:43;;;;;;;10.13;2.60;;;;;;;20.79;65.63;99825.97;4241400;28;20602;-70
2023/08/05 06:13:10;;;;;;;8.73;2.80;;;;;;;20.61;65.98;99832.28;4233258;28;21727;-68
2023/08/05 06:15:41;;;;;;;12.67;2.80;;;;;;;20.49;65.96;99827.56;4256270;28;20261;-70
2023/08/05 06:18:09;;;;;;;9.07;2.70;;;;;;;20.25;67.26;99804.53;4225059;28;20234;-68
2023/08/05 06:20:36;;;;;;;8.57;2.90;;;;;;;20.37;66.90;99805.47;4240182;28;21756;-68
2023/08/05 06:23:03;;;;;;;11.83;3.20;;;;;;;20.11;67.89;99799.16;4238797;28;20235;-69
2023/08/05 06:25:30;;;;;;;7.43;2.87;;;;;;;20.03;68.81;99798.63;4238271;28;20227;-68
2023/08/05 06:27:56;;;;;;;11.67;2.87;;;;;;;20.04;69.50;99798.41;4241748;28;20313;-69
2023/08/05 06:30:23;;;;;;;10.17;2.80;;;;;;;19.89;71.67;99809.75;4224649;28;22924;-68
2023/08/05 06:32:50;;;;;;;8.67;2.87;;;;;;;19.84;71.66;99809.56;4237206;28;21132;-72
2023/08/05 06:35:16;;;;;;;11.10;2.83;;;;;;;19.85;72.39;99814.00;4246033;28;20242;-71
2023/08/05 06:37:43;;;;;;;8.13;2.83;;;;;;;19.86;72.72;99812.94;4214585;28;20834;-68
2023/08/05 06:40:11;;;;;;;6.17;3.30;;;;;;;19.85;73.33;99811.25;4239430;28;20240;-70
2023/08/05 06:42:38;;;;;;;6.23;3.80;;;;;;;19.90;72.80;99813.31;4224102;28;20315;-68
2023/08/05 06:45:05;;;;;;;9.30;3.27;;;;;;;19.77;73.12;99834.31;4233714;28;20231;-69
2023/08/05 06:47:32;;;;;;;7.90;3.20;;;;;;;19.79;73.53;99837.66;4216644;28;21186;-69
2023/08/05 06:49:58;;;;;;;8.97;3.50;;;;;;;19.59;75.27;99842.47;4232366;28;20289;-70
2023/08/05 06:52:25;;;;;;;7.33;3.10;;;;;;;19.62;75.48;99844.78;4233528;28;20305;-71
2023/08/05 06:54:51;;;;;;;9.93;3.50;;;;;;;19.61;77.18;99837.59;4239916;28;20390;-72
2023/08/05 06:57:18;;;;;;;6.23;2.97;;;;;;;19.67;77.15;99805.66;4232027;28;21152;-72
2023/08/05 06:59:45;;;;;;;7.50;3.20;;;;;;;19.68;76.83;99797.19;4235768;28;20247;-64
2023/08/05 07:02:12;;;;;;;7.33;3.60;;;;;;;19.48;77.39;99824.78;4242338;28;20310;-70
2023/08/05 07:04:39;;;;;;;11.03;3.30;;;;;;;19.44;78.41;99843.59;4237710;28;20247;-70
2023/08/05 07:07:05;;;;;;;11.97;3.90;;;;;;;19.41;79.41;99862.41;4223499;28;20326;-71
2023/08/05 07:09:32;;;;;;;9.27;3.37;;;;;;;19.40;79.38;99875.31;4233605;28;20326;-68
2023/08/05 07:11:59;;;;;;;11.67;3.90;;;;;;;19.21;80.55;99871.63;4205023;28;21190;-72
2023/08/05 07:14:25;;;;;;;10.20;4.00;;;;;;;19.16;81.82;99868.66;4235114;28;20243;-69
2023/08/05 07:16:52;;;;;;;15.47;4.80;;;;;;;19.09;81.88;99871.44;4238241;28;21106;-69
2023/08/05 07:19:18;;;;;;;11.13;4.17;;;;;;;19.08;81.81;99871.66;4229851;28;20250;-69
2023/08/05 07:21:45;;;;;;;11.80;4.80;;;;;;;19.04;83.22;99878.63;4229176;28;20301;-70
2023/08/05 07:24:11;;;;;;;20.37;4.67;;;;;;;19.02;83.40;99872.53;4222223;28;21871;-72
2023/08/05 07:26:38;;;;;;;19.73;5.30;;;;;;;18.96;83.77;99866.00;4217858;28;20231;-72
2023/08/05 07:29:04;;;;;;;10.17;4.10;;;;;;;18.89;82.85;99845.94;4235386;28;22377;-75
2023/08/05 07:31:31;;;;;;;14.53;4.70;;;;;;;18.92;83.49;99834.59;4222848;28;20223;-75
2023/08/05 07:33:57;;;;;;;9.60;4.10;;;;;;;18.97;83.42;99832.88;4238037;28;20239;-75
2023/08/05 07:36:26;;;;;;;14.17;4.57;;;;;;;19.02;84.52;99839.59;4220844;28;20400;-74
2023/08/05 07:38:54;;;;;;;14.63;5.23;;;;;;;19.04;85.45;99848.47;4211861;28;20246;-75
2023/08/05 07:41:25;;;;;;;10.57;5.00;;;;;;;19.08;85.92;99855.19;4231454;28;20231;-75
2023/08/05 07:44:01;;;;;;;11.97;4.80;;;;;;;19.11;86.01;99865.75;4228584;28;20293;-75
2023/08/05 07:46:31;;;;;;;11.43;5.07;;;;;;;19.04;86.33;99871.25;4234270;28;20305;-75
2023/08/05 07:49:00;;;;;;;10.67;4.67;;;;;;;19.08;86.33;99883.47;4241494;28;20238;-72
2023/08/05 07:51:28;;;;;;;11.53;5.00;;;;;;;19.03;86.56;99886.03;4221858;28;20349;-69
2023/08/05 07:53:57;;;;;;;11.83;5.10;;;;;;;19.01;86.92;99885.41;4228569;28;20239;-72
2023/08/05 07:56:24;;;;;;;13.90;5.80;;;;;;;19.06;86.69;99895.72;4234203;28;20247;-70
2023/08/05 07:58:51;;;;;;;13.37;6.37;;;;;;;19.07;87.34;99905.66;4228878;28;20792;-72
2023/08/05 08:01:21;;;;;;;15.53;6.30;;;;;;;18.99;87.63;99901.22;4229292;28;20239;-71
2023/08/05 08:03:51;;;;;;;15.40;6.00;;;;;;;18.91;87.72;99887.72;4212806;28;20235;-70
2023/08/05 08:06:18;;;;;;;15.23;5.80;;;;;;;18.80;87.82;99878.25;4235803;28;20585;-69
2023/08/05 08:08:47;;;;;;;12.37;5.67;;;;;;;18.71;88.60;99879.53;4225891;28;20422;-71
2023/08/05 08:11:14;;;;;;;15.93;6.27;;;;;;;18.67;89.77;99887.38;4223523;28;20246;-72
2023/08/05 08:13:41;;;;;;;15.93;6.10;;;;;;;18.68;89.81;99895.41;4239719;28;21561;-73
2023/08/05 08:16:08;;;;;;;17.90;6.97;;;;;;;18.46;92.23;99891.22;4232807;28;21171;-73
2023/08/05 08:18:35;;;;;;;16.50;6.67;;;;;;;18.35;92.38;99884.47;4229335;28;21552;-66
2023/08/05 08:21:03;;;;;;;18.93;7.10;;;;;;;18.32;92.68;99882.97;4226437;28;21175;-74
2023/08/05 08:23:30;;;;;;;15.77;6.93;;;;;;;18.30;93.20;99900.69;4227682;28;20234;-71
2023/08/05 08:25:58;;;;;;;25.47;10.23;;;;;;;18.23;96.35;99897.97;4226066;28;20611;-74
2023/08/05 08:28:26;;;;;;;19.17;9.93;;;;;;;18.13;95.45;99900.28;4231209;28;20232;-73
2023/08/05 08:30:54;;;;;;;15.40;8.23;;;;;;;18.10;96.27;99903.44;4214011;28;21086;-70
2023/08/05 08:33:21;;;;;;;18.17;7.53;;;;;;;17.95;97.31;99909.94;4232502;28;20232;-71
2023/08/05 08:35:49;;;;;;;16.27;8.00;;;;;;;17.95;98.22;99917.31;4229550;28;21539;-73
2023/08/05 08:38:16;;;;;;;15.60;8.83;;;;;;;17.86;100.00;99924.88;4226607;28;21186;-72
2023/08/05 08:40:51;;;;;;;19.10;8.67;;;;;;;17.87;99.71;99924.66;4227770;28;23193;-72
2023/08/05 08:43:18;;;;;;;19.23;7.93;;;;;;;17.87;99.38;99913.72;4227056;28;20231;-69
2023/08/05 08:45:54;;;;;;;17.87;7.57;;;;;;;17.77;99.63;99898.75;4235012;28;20247;-71
2023/08/05 08:48:23;;;;;;;20.43;8.13;;;;;;;17.87;99.44;99886.34;4228162;28;20241;-74
2023/08/05 08:50:52;;;;;;;22.90;8.33;;;;;;;17.89;100.00;99877.91;4221032;28;20231;-74
2023/08/05 08:53:20;;;;;;;18.27;9.27;;;;;;;17.73;100.00;99862.75;4233534;28;21756;-70
2023/08/05 08:55:47;;;;;;;34.93;18.60;;;;;;;17.63;100.00;99862.28;4230565;28;20238;-73
2023/08/05 08:58:14;;;;;;;22.57;10.97;;;;;;;17.52;100.00;99861.00;4235918;28;21194;-74
2023/08/05 09:00:41;;;;;;;20.50;9.20;;;;;;;17.53;100.00;99857.22;4226823;28;20303;-72
2023/08/05 09:03:09;;;;;;;18.47;8.50;;;;;;;17.57;100.00;99856.59;4220223;28;20233;-74
2023/08/05 09:05:44;;;;;;;28.03;9.90;;;;;;;17.52;100.00;99850.06;4227684;28;20306;-70
2023/08/05 09:08:11;;;;;;;21.73;9.67;;;;;;;17.45;100.00;99839.09;4215391;28;20243;-70
2023/08/05 09:10:38;;;;;;;20.93;10.37;;;;;;;17.47;100.00;99823.31;4235836;28;20238;-73
2023/08/05 09:13:06;;;;;;;17.80;10.87;;;;;;;17.39;100.00;99815.31;4220180;28;21074;-73
2023/08/05 09:15:36;;;;;;;21.10;10.70;;;;;;;17.36;100.00;99802.06;4234154;28;22314;-72
2023/08/05 09:18:04;;;;;;;21.13;10.93;;;;;;;17.36;100.00;99807.53;4226076;28;20238;-69
2023/08/05 09:20:32;;;;;;;24.17;11.33;;;;;;;17.26;100.00;99806.03;4231832;28;20313;-70
2023/08/05 09:23:01;;;;;;;24.53;10.77;;;;;;;17.25;100.00;99785.19;4244653;28;20250;-69
2023/08/05 09:25:32;;;;;;;23.13;11.10;;;;;;;17.25;100.00;99779.72;4226681;28;21734;-69
2023/08/05 09:28:00;;;;;;;20.03;11.30;;;;;;;17.24;100.00;99769.00;4231657;28;20301;-74
2023/08/05 09:30:27;;;;;;;18.47;12.10;;;;;;;17.27;100.00;99757.63;4233864;28;21639;-72
2023/08/05 09:32:54;;;;;;;22.87;10.90;;;;;;;17.27;100.00;99728.41;4227572;28;20379;-70
2023/08/05 09:35:24;;;;;;;22.00;11.47;;;;;;;17.20;100.00;99718.47;4238762;28;20238;-73
2023/08/05 09:37:52;;;;;;;16.67;9.87;;;;;;;17.17;100.00;99710.72;4229720;28;20298;-72
2023/08/05 09:40:25;;;;;;;14.47;9.27;;;;;;;17.11;100.00;99715.94;4235040;28;21162;-70
2023/08/05 09:42:54;;;;;;;17.00;9.60;;;;;;;17.06;100.00;99709.44;4246867;28;21669;-71
2023/08/05 09:45:21;;;;;;;18.17;9.97;;;;;;;17.02;100.00;99710.88;4210970;28;20285;-73
2023/08/05 09:47:49;;;;;;;15.37;9.87;;;;;;;17.02;100.00;99702.69;4232255;28;20646;-73
2023/08/05 09:50:18;;;;;;;19.87;9.73;;;;;;;17.07;100.00;99679.13;4232134;28;20242;-74
2023/08/05 09:52:49;;;;;;;14.27;8.90;;;;;;;17.10;100.00;99665.06;4242250;28;20277;-72
2023/08/05 09:55:18;;;;;;;17.83;10.80;;;;;;;17.08;100.00;99661.69;4224548;28;22446;-73
2023/08/05 09:57:45;;;;;;;18.63;10.60;;;;;;;17.12;100.00;99653.91;4230429;28;25220;-72
2023/08/05 10:00:14;;;;;;;18.10;11.10;;;;;;;17.11;100.00;99616.66;4225095;28;20312;-73
2023/08/05 10:02:44;;;;;;;20.37;9.63;;;;;;;17.13;100.00;99584.50;4239072;28;20251;-72
2023/08/05 10:05:12;;;;;;;16.77;10.30;;;;;;;17.09;100.00;99540.31;4233854;28;20240;-70
2023/08/05 10:07:42;;;;;;;16.57;9.87;;;;;;;17.11;100.00;99479.94;4222381;28;25458;-71
2023/08/05 10:10:17;;;;;;;17.93;9.67;;;;;;;17.07;100.00;99448.63;4232884;28;20242;-72
2023/08/05 10:12:52;;;;;;;12.30;8.10;;;;;;;16.99;100.00;99430.53;4238139;28;20276;-74
2023/08/05 10:15:25;;;;;;;14.60;8.30;;;;;;;17.04;100.00;99459.97;4231978;28;20516;-69
2023/08/05 10:17:52;;;;;;;14.90;8.13;;;;;;;17.12;100.00;99522.63;4210890;28;20236;-73
2023/08/05 10:20:20;;;;;;;12.03;7.80;;;;;;;17.39;100.00;99586.34;4239782;28;20242;-71
2023/08/05 10:23:04;;;;;;;14.00;7.70;;;;;;;17.74;100.00;99649.00;4238518;28;20236;-68
2023/08/05 10:25:44;;;;;;;11.70;7.20;;;;;;;18.03;100.00;99685.19;4237596;28;21899;-65
2023/08/05 10:28:23;;;;;;;13.40;6.90;;;;;;;18.32;100.00;99698.56;4239423;28;21761;-67
2023/08/05 10:30:51;;;;;;;7.47;5.67;;;;;;;18.67;100.00;99707.28;4230391;28;20945;-66
2023/08/05 10:33:18;;;;;;;9.23;6.03;;;;;;;18.91;98.88;99718.53;4247259;28;20262;-69
2023/08/05 10:35:46;;;;;;;8.13;4.80;;;;;;;19.06;97.43;99718.25;4222528;28;21465;-73
2023/08/05 10:38:19;;;;;;;6.20;3.60;;;;;;;18.71;94.34;99726.00;4225458;28;20620;-72
2023/08/05 10:41:00;;;;;;;10.67;3.93;;;;;;;18.66;96.41;99724.78;4220925;28;20254;-72
2023/08/05 10:43:33;;;;;;;6.53;2.90;;;;;;;18.40;94.42;99727.63;4235912;28;20452;-68
2023/08/05 10:46:13;;;;;;;6.13;3.40;;;;;;;18.27;97.08;99715.66;4232702;28;20231;-71
2023/08/05 10:48:50;;;;;;;9.00;3.90;;;;;;;18.45;97.58;99706.75;4256582;28;20229;-69
2023/08/05 10:51:18;;;;;;;9.47;4.13;;;;;;;18.45;97.55;99708.66;4230954;28;20309;-70
2023/08/05 10:54:05;;;;;;;10.53;4.20;;;;;;;18.46;97.53;99696.63;4235758;28;20243;-67
2023/08/05 10:56:33;;;;;;;6.07;3.43;;;;;;;18.37;96.78;99683.19;4240836;28;20364;-71
2023/08/05 10:59:04;;;;;;;8.33;3.93;;;;;;;18.24;98.53;99665.94;4261866;28;20242;-70
2023/08/05 11:01:56;;;;;;;8.43;4.17;;;;;;;18.50;98.79;99654.03;4233652;28;22608;-71
2023/08/05 11:04:31;;;;;;;15.00;4.53;;;;;;;18.70;98.13;99653.91;4270185;28;20289;-59
2023/08/05 11:07:00;;;;;;;8.00;4.67;;;;;;;18.97;96.60;99651.88;4253378;28;20407;-55
2023/08/05 11:09:27;;;;;;;10.03;4.93;;;;;;;19.09;94.80;99654.72;4248495;28;22378;-57
2023/08/05 11:11:54;;;;;;;10.87;5.27;;;;;;;19.20;95.80;99655.06;4244716;28;20239;-57
2023/08/05 11:14:21;;;;;;;8.47;4.50;;;;;;;19.60;95.32;99658.28;4264731;28;22868;-54
2023/08/05 11:16:48;;;;;;;9.37;4.10;;;;;;;19.66;93.01;99658.47;4277773;28;20901;-52
2023/08/05 11:19:17;;;;;;;9.00;3.90;;;;;;;19.66;92.69;99655.72;4266398;28;22339;-53
2023/08/05 11:21:44;;;;;;;7.90;3.67;;;;;;;19.69;92.67;99650.59;4243267;28;20286;-51
2023/08/05 11:24:18;;;;;;;7.70;3.60;;;;;;;19.68;92.06;99653.56;4245078;28;20320;-51
2023/08/05 11:26:46;;;;;;;8.97;3.50;;;;;;;19.40;92.20;99646.66;4241657;28;20227;-55
2023/08/05 11:29:16;;;;;;;9.37;4.37;;;;;;;19.42;93.07;99645.34;4238104;28;20231;-53